Portada
METAR-TAF:

METAR-TAF

Aeroports :

Gabès, Tunísia

latitud: 33-53N, longitud: 010-06E, altitud: 4 m

Observació

L'informe es va fer fa 50 minuts, a les 06:00 UTC
Vent 4 kt del Oest
Temperatura 4°C
Humitat 81%
Pressió 1023 hPa
Visibilitat: 8000 m

METAR: DTTG 110600Z 27004KT 8000 NSC 04/01 Q1023 NOSIG

Hora: 07:50 (06:50 UTC)

Pronòstic

L'informe es va fer fa 50 minuts, a les 06:00 UTC
Pronòstic vàlid del 11 a les 07 UTC al 11 a les 16 UTC
Vent 8 kt del Oest
Visibilitat 10 km o més
Escasses núvols a una alçada de 2600 ft

TAF: DTTG 110600Z 1107/1116 27008KT 9999 FEW026

Observacions i pronòstics meteorològics de més de 4000 aeroports (METAR i TAF).

Les estacions disponibles són els punts grocs i vermells al mapa.

Posi el ratolí al punt desitjat per veure el nom de l'estació.

Feu clic per veure les observacions i els pronòstics meteorològics.

Per canviar el mapa: feu clic els botons verds amb una creu de color negre per apropar; al botó verd amb un guió per allunyar la imatge; o en les fletxes verdes per a mapes adjacents.


METAR-TAF: